Latest METARs, TAFs and NOTAMs for WSSL


---------------------------------------------------------------------------
	(OBSERVATIONS)
WSSL 212230Z NIL=
WSSL 212200Z 00000KT 9999 FEW018 BKN150 26/24 Q1009 RMK 2130Z
    Q1008=
WSSL 212130Z NIL=
WSSL 212100Z 30002KT 9999 FEW018 BKN150 26/24 Q1008 RMK 1430Z
    Q1010=
WSSL 212030Z NIL=
---------------------------------------------------------------------------
	(TERMINAL AREA FORECAST)
WSSL 211700Z 2118/2300 22009KT 9999 FEW018CB SCT020
    TEMPO 2202/2206 3000 TSRA FEW012CB BKN015=
---------------------------------------------------------------------------
	(NOTAMS)


WSSL A2379/17 MICROWAVE BARRIER DETECTOR (MBD) FOR RWY INCURSION
    DETECTION IN OPERATION AT ALL RWY HOLDING PSN AND AES EMERG
    ROAD. 04 SEP 05:00 2017 UNTIL PERM. CREATED: 07 AUG 04:34
    2017

WSSL A2492/17 BTN THE HOURS OF SUNSET AND SUNRISE, ARR ON RWY
    21 AND DEP ON RWY 03 SUSPENDED DUE UNSERVICEABILITY OF OBSTRUCTION
    LIGHTS ON OBSTACLE 2NM NORTH OF SELETAR. 21 AUG 00:23 2017
    UNTIL 25 NOV 23:00 2017. CREATED: 21 AUG 00:23 2017

---------------------------------------------------------------------------